createdAt,value
2022-10-20T00:01:22.339Z,4.62
2022-10-20T00:03:53.053Z,4.05
2022-10-20T00:06:23.375Z,4.51
2022-10-20T00:08:52.083Z,4.40
2022-10-20T00:11:22.914Z,4.34
2022-10-20T00:13:52.960Z,4.18
2022-10-20T00:16:21.863Z,3.95
2022-10-20T00:18:52.311Z,4.21
2022-10-20T00:21:23.021Z,4.23
2022-10-20T00:23:51.709Z,4.23
2022-10-20T00:26:21.735Z,4.15
2022-10-20T00:28:50.630Z,3.72
2022-10-20T00:31:21.092Z,4.09
2022-10-20T00:33:52.549Z,4.01
2022-10-20T00:36:24.197Z,3.74
2022-10-20T00:38:53.369Z,4.05
2022-10-20T00:41:22.831Z,3.98
2022-10-20T00:43:53.626Z,3.69
2022-10-20T00:46:24.713Z,3.89
2022-10-20T00:48:56.468Z,3.60
2022-10-20T00:51:29.517Z,3.87
2022-10-20T00:54:04.109Z,3.86
2022-10-20T00:56:33.374Z,3.83
2022-10-20T00:59:03.258Z,3.76
2022-10-20T01:01:32.483Z,3.80
2022-10-20T01:04:01.605Z,3.76
2022-10-20T01:06:31.944Z,3.72
2022-10-20T01:09:00.859Z,3.70
2022-10-20T01:11:40.114Z,3.69
2022-10-20T01:14:26.082Z,3.62
2022-10-20T01:17:03.160Z,3.55
2022-10-20T01:20:12.076Z,3.52
2022-10-20T01:23:12.341Z,3.47
2022-10-20T01:25:51.938Z,3.44
2022-10-20T01:28:29.171Z,3.45
2022-10-20T01:31:01.724Z,3.45
2022-10-20T01:33:37.499Z,3.46
2022-10-20T01:36:12.386Z,3.42
2022-10-20T01:38:45.352Z,3.43
2022-10-20T01:41:20.548Z,3.43
2022-10-20T01:43:51.505Z,3.39
2022-10-20T01:46:23.091Z,3.37
2022-10-20T01:48:51.969Z,3.01
2022-10-20T01:51:20.372Z,3.30
2022-10-20T01:53:49.285Z,3.32
2022-10-20T01:56:22.930Z,3.31
2022-10-20T01:59:25.892Z,3.25
2022-10-20T02:02:16.436Z,3.22
2022-10-20T02:05:00.626Z,3.20
2022-10-20T02:07:31.429Z,3.20
2022-10-20T02:10:06.358Z,3.18
2022-10-20T02:12:40.143Z,3.12
2022-10-20T02:15:10.967Z,2.95
2022-10-20T02:17:42.026Z,3.04
2022-10-20T02:20:13.146Z,3.03
2022-10-20T02:22:42.095Z,2.96
2022-10-20T02:25:12.949Z,2.56
2022-10-20T02:27:44.430Z,2.89
2022-10-20T02:30:17.625Z,2.75
2022-10-20T02:32:50.729Z,2.78
2022-10-20T02:35:22.328Z,2.82
2022-10-20T02:37:50.810Z,2.78
2022-10-20T02:40:19.379Z,2.78
2022-10-20T02:42:47.697Z,2.79
2022-10-20T02:45:17.828Z,2.49
2022-10-20T02:47:46.243Z,2.81
2022-10-20T02:50:14.772Z,2.80
2022-10-20T02:52:43.119Z,2.79
2022-10-20T02:55:11.811Z,2.36
2022-10-20T02:57:40.325Z,2.75
2022-10-20T03:00:10.113Z,2.73
2022-10-20T03:02:40.096Z,2.73
2022-10-20T03:05:09.006Z,2.74
2022-10-20T03:07:37.637Z,2.75
2022-10-20T03:10:06.975Z,2.62
2022-10-20T03:12:35.314Z,2.71
2022-10-20T03:15:03.744Z,2.22
2022-10-20T03:17:32.082Z,2.60
2022-10-20T03:20:02.814Z,2.09
2022-10-20T03:22:31.589Z,2.15
2022-10-20T03:25:00.030Z,2.49
2022-10-20T03:27:28.305Z,2.47
2022-10-20T03:29:56.699Z,2.45
2022-10-20T03:32:25.010Z,2.46
2022-10-20T03:34:54.004Z,2.44
2022-10-20T03:37:23.830Z,2.37
2022-10-20T03:39:52.197Z,2.36
2022-10-20T03:42:20.702Z,2.19
2022-10-20T03:44:49.177Z,1.59
2022-10-20T03:47:17.897Z,2.38
2022-10-20T03:49:46.252Z,2.39
2022-10-20T03:52:14.768Z,2.39
2022-10-20T03:54:44.938Z,2.38
2022-10-20T03:57:13.336Z,2.38
2022-10-20T03:59:41.832Z,2.40
2022-10-20T04:02:23.198Z,2.44
2022-10-20T04:04:51.588Z,2.43
2022-10-20T04:07:20.250Z,2.46
2022-10-20T04:09:50.065Z,2.46
2022-10-20T04:12:18.613Z,2.50
2022-10-20T04:14:47.021Z,2.51
2022-10-20T04:17:15.385Z,2.34
2022-10-20T04:19:43.748Z,2.37
2022-10-20T04:22:12.266Z,2.57
2022-10-20T04:24:40.798Z,2.57
2022-10-20T04:27:10.682Z,2.59
2022-10-20T04:29:39.244Z,2.62
2022-10-20T04:32:07.637Z,2.60
2022-10-20T04:34:36.690Z,2.45
2022-10-20T04:37:05.189Z,2.33
2022-10-20T04:39:33.463Z,2.60
2022-10-20T04:42:01.873Z,2.58
2022-10-20T04:44:31.624Z,2.61
2022-10-20T04:47:00.005Z,2.65
2022-10-20T04:49:28.519Z,2.66
2022-10-20T04:52:00.853Z,2.68
2022-10-20T04:54:29.635Z,2.65
2022-10-20T04:56:58.699Z,2.66
2022-10-20T04:59:27.087Z,2.67
2022-10-20T05:01:56.866Z,2.66
2022-10-20T05:04:25.429Z,2.46
2022-10-20T05:06:53.767Z,2.68
2022-10-20T05:09:22.203Z,2.69
2022-10-20T05:11:50.540Z,2.53
2022-10-20T05:14:18.810Z,2.71
2022-10-20T05:16:47.245Z,2.68
2022-10-20T05:19:16.999Z,2.68
2022-10-20T05:21:45.693Z,2.71
2022-10-20T05:24:19.835Z,2.72
2022-10-20T05:26:49.973Z,2.72
2022-10-20T05:29:18.270Z,2.71
2022-10-20T05:31:46.706Z,2.68
2022-10-20T05:34:16.565Z,2.68
2022-10-20T05:36:45.287Z,2.72
2022-10-20T05:39:13.769Z,2.79
2022-10-20T05:41:42.202Z,2.77
2022-10-20T05:44:13.767Z,2.82
2022-10-20T05:46:42.795Z,2.85
2022-10-20T05:49:15.907Z,2.86
2022-10-20T05:51:48.072Z,2.61
2022-10-20T05:54:17.179Z,2.87
2022-10-20T05:56:45.896Z,2.99
2022-10-20T05:59:14.848Z,2.84
2022-10-20T06:01:49.387Z,3.04
2022-10-20T06:04:19.660Z,3.06
2022-10-20T06:06:49.497Z,3.11
2022-10-20T06:09:18.903Z,3.14
2022-10-20T06:11:47.990Z,3.19
2022-10-20T06:14:17.459Z,3.26
2022-10-20T06:16:46.206Z,3.29
2022-10-20T06:19:14.573Z,3.21
2022-10-20T06:24:19.374Z,3.25
2022-10-20T06:26:47.846Z,3.41
2022-10-20T06:29:18.710Z,3.48
2022-10-20T06:31:49.458Z,3.50
2022-10-20T06:34:19.869Z,3.55
2022-10-20T06:36:48.812Z,3.53
2022-10-20T06:39:20.618Z,3.55
2022-10-20T06:41:50.866Z,3.23
2022-10-20T06:44:19.696Z,3.56
2022-10-20T06:46:48.594Z,3.67
2022-10-20T06:49:17.449Z,3.70
2022-10-20T06:51:46.183Z,3.73
2022-10-20T06:54:14.507Z,3.76
2022-10-20T06:56:44.346Z,3.62
2022-10-20T06:59:12.682Z,3.83
2022-10-20T07:01:42.368Z,3.89
2022-10-20T07:04:15.733Z,4.01
2022-10-20T07:06:45.838Z,4.03
2022-10-20T07:09:16.583Z,4.00
2022-10-20T07:11:46.930Z,4.19
2022-10-20T07:14:15.537Z,4.29
2022-10-20T07:16:44.310Z,4.38
2022-10-20T07:19:13.033Z,3.43
2022-10-20T07:21:45.535Z,4.59
2022-10-20T07:24:15.665Z,4.71
2022-10-20T07:26:45.991Z,4.50
2022-10-20T07:29:15.140Z,4.85
2022-10-20T07:31:46.721Z,4.93
2022-10-20T07:34:26.216Z,4.98
2022-10-20T07:36:56.755Z,5.03
2022-10-20T07:39:25.280Z,4.95
2022-10-20T07:41:55.164Z,5.15
2022-10-20T07:44:23.459Z,5.18
2022-10-20T07:46:52.194Z,5.25
2022-10-20T07:52:09.365Z,5.36
2022-10-20T07:54:37.678Z,5.44
2022-10-20T07:57:07.475Z,5.51
2022-10-20T07:59:35.872Z,5.58
2022-10-20T08:02:04.808Z,5.45
2022-10-20T08:04:33.382Z,5.60
2022-10-20T08:07:02.041Z,5.78
2022-10-20T08:09:30.670Z,5.82
2022-10-20T08:11:59.089Z,5.91
2022-10-20T08:14:32.129Z,5.97
2022-10-20T08:17:04.512Z,6.02
2022-10-20T08:19:48.448Z,6.12
2022-10-20T08:22:19.307Z,6.17
2022-10-20T08:24:48.124Z,6.06
2022-10-20T08:27:17.181Z,6.27
2022-10-20T08:29:55.050Z,6.41
2022-10-20T08:32:35.442Z,6.47
2022-10-20T08:35:04.248Z,6.49
2022-10-20T08:37:33.403Z,6.48
2022-10-20T08:40:02.018Z,6.68
2022-10-20T08:42:30.611Z,6.60
2022-10-20T08:45:01.910Z,6.66
2022-10-20T08:47:34.216Z,6.85
2022-10-20T08:50:03.918Z,7.00
2022-10-20T08:52:32.635Z,7.09
2022-10-20T08:55:01.227Z,7.18
2022-10-20T08:57:34.753Z,7.25
2022-10-20T09:00:16.410Z,7.34
2022-10-20T09:02:44.878Z,7.41
2022-10-20T09:05:18.231Z,7.33
2022-10-20T09:07:50.379Z,7.58
2022-10-20T09:10:35.136Z,7.67
2022-10-20T09:13:08.371Z,7.72
2022-10-20T09:15:39.673Z,7.80
2022-10-20T09:18:12.294Z,7.90
2022-10-20T09:20:46.158Z,7.99
2022-10-20T09:23:39.349Z,7.60
2022-10-20T09:26:04.622Z,8.07
2022-10-20T09:28:39.272Z,8.21
2022-10-20T09:31:32.989Z,8.01
2022-10-20T09:34:01.387Z,8.03
2022-10-20T09:36:35.276Z,8.39
2022-10-20T09:39:04.371Z,8.49
2022-10-20T09:41:33.709Z,8.47
2022-10-20T09:44:04.803Z,8.65
2022-10-20T09:46:40.228Z,8.75
2022-10-20T09:49:09.467Z,8.86
2022-10-20T09:51:38.627Z,9.00
2022-10-20T09:54:09.585Z,8.77
2022-10-20T09:56:41.548Z,9.03
2022-10-20T09:59:22.934Z,9.21
2022-10-20T10:01:57.877Z,9.50
2022-10-20T10:04:36.795Z,9.66
2022-10-20T10:07:07.486Z,9.80
2022-10-20T10:09:38.460Z,9.94
2022-10-20T10:12:18.100Z,10.09
2022-10-20T10:14:53.434Z,10.24
2022-10-20T10:17:33.030Z,10.40
2022-10-20T10:20:02.372Z,10.50
2022-10-20T10:22:30.818Z,10.49
2022-10-20T10:25:01.199Z,10.80
2022-10-20T10:27:31.923Z,10.93
2022-10-20T10:30:28.866Z,11.11
2022-10-20T10:32:58.921Z,11.31
2022-10-20T10:35:31.050Z,11.41
2022-10-20T10:38:00.619Z,11.49
2022-10-20T10:40:36.280Z,11.61
2022-10-20T10:43:29.958Z,11.44
2022-10-20T10:46:01.616Z,11.80
2022-10-20T10:49:05.447Z,11.91
2022-10-20T10:51:49.990Z,12.00
2022-10-20T10:54:32.333Z,12.11
2022-10-20T10:57:07.907Z,12.22
2022-10-20T10:59:42.216Z,12.40
2022-10-20T11:02:41.216Z,12.53
2022-10-20T11:05:56.091Z,12.62
2022-10-20T11:08:32.453Z,12.56
2022-10-20T11:11:08.946Z,12.65
2022-10-20T11:13:44.139Z,12.64
2022-10-20T11:16:31.803Z,12.67
2022-10-20T11:19:24.854Z,12.67
2022-10-20T11:22:05.214Z,12.75
2022-10-20T11:24:47.189Z,12.71
2022-10-20T11:27:19.938Z,12.88
2022-10-20T11:29:52.533Z,13.14
2022-10-20T11:32:28.873Z,13.30
2022-10-20T11:35:15.639Z,13.52
2022-10-20T11:37:47.958Z,13.70
2022-10-20T11:40:24.667Z,13.87
2022-10-20T11:43:02.198Z,13.95
2022-10-20T11:45:38.851Z,14.06
2022-10-20T11:48:16.917Z,14.13
2022-10-20T11:50:53.617Z,14.22
2022-10-20T11:53:38.480Z,14.31
2022-10-20T11:56:43.616Z,14.39
2022-10-20T11:59:49.688Z,14.52
2022-10-20T12:02:51.696Z,14.60
2022-10-20T12:05:43.664Z,14.70
2022-10-20T12:08:40.725Z,14.83
2022-10-20T12:11:16.415Z,14.89
2022-10-20T12:13:56.144Z,14.95
2022-10-20T12:17:06.139Z,15.11
2022-10-20T12:19:36.791Z,15.13
2022-10-20T12:22:07.519Z,15.24
2022-10-20T12:24:39.123Z,15.25
2022-10-20T12:27:29.763Z,15.36
2022-10-20T12:30:22.258Z,15.30
2022-10-20T12:33:10.554Z,15.27
2022-10-20T12:36:02.432Z,15.22
2022-10-20T12:38:32.581Z,15.21
2022-10-20T12:41:02.921Z,15.23
2022-10-20T12:43:38.923Z,15.19
2022-10-20T12:48:56.695Z,15.39
2022-10-20T12:51:33.312Z,15.43
2022-10-20T12:54:05.852Z,15.53
2022-10-20T12:56:39.230Z,15.50
2022-10-20T12:59:38.293Z,15.39
2022-10-20T13:02:44.448Z,15.54
2022-10-20T13:05:46.964Z,15.60
2022-10-20T13:08:29.312Z,15.65
2022-10-20T13:10:59.478Z,15.67
2022-10-20T13:13:46.483Z,15.75
2022-10-20T13:16:22.748Z,15.15
2022-10-20T13:18:54.901Z,15.72
2022-10-20T13:21:30.243Z,15.40
2022-10-20T13:24:04.499Z,15.62
2022-10-20T13:26:37.587Z,15.60
2022-10-20T13:29:14.776Z,15.60
2022-10-20T13:31:49.033Z,15.56
2022-10-20T13:34:26.354Z,15.52
2022-10-20T13:37:07.355Z,15.47
2022-10-20T13:39:46.279Z,15.39
2022-10-20T13:42:29.613Z,14.40
2022-10-20T13:45:08.961Z,15.18
2022-10-20T13:47:59.717Z,15.08
2022-10-20T13:50:33.798Z,14.99
2022-10-20T13:53:06.924Z,14.95
2022-10-20T13:55:57.319Z,14.89
2022-10-20T13:58:26.464Z,14.80
2022-10-20T14:01:01.321Z,14.81
2022-10-20T14:03:30.941Z,14.27
2022-10-20T14:06:00.758Z,14.53
2022-10-20T14:08:29.222Z,14.50
2022-10-20T14:11:00.094Z,14.08
2022-10-20T14:13:34.577Z,14.15
2022-10-20T14:16:06.370Z,14.18
2022-10-20T14:18:39.779Z,13.89
2022-10-20T14:21:17.106Z,14.07
2022-10-20T14:23:48.963Z,14.02
2022-10-20T14:26:19.394Z,13.95
2022-10-20T14:28:50.307Z,13.52
2022-10-20T14:31:23.609Z,13.85
2022-10-20T14:33:53.680Z,13.78
2022-10-20T14:38:57.623Z,13.67
2022-10-20T14:41:28.394Z,13.59
2022-10-20T14:44:04.897Z,13.59
2022-10-20T14:46:39.182Z,13.00
2022-10-20T14:49:16.328Z,13.55
2022-10-20T14:51:55.760Z,12.98
2022-10-20T14:57:24.042Z,13.43
2022-10-20T14:59:56.402Z,12.80
2022-10-20T15:02:27.616Z,13.16
2022-10-20T15:04:56.136Z,13.34
2022-10-20T15:07:29.936Z,13.06
2022-10-20T15:10:05.168Z,13.32
2022-10-20T15:12:40.036Z,13.33
2022-10-20T15:15:20.714Z,13.27
2022-10-20T15:17:50.738Z,13.28
2022-10-20T15:20:34.920Z,13.29
2022-10-20T15:23:06.562Z,13.15
2022-10-20T15:25:42.586Z,13.17
2022-10-20T15:28:24.205Z,13.16
2022-10-20T15:30:52.747Z,13.23
2022-10-20T15:33:21.825Z,13.10
2022-10-20T15:35:51.058Z,12.96
2022-10-20T15:38:21.306Z,12.95
2022-10-20T15:40:50.110Z,12.93
2022-10-20T15:43:20.224Z,12.87
2022-10-20T15:45:54.203Z,12.44
2022-10-20T15:48:24.090Z,12.46
2022-10-20T15:50:53.525Z,12.74
2022-10-20T15:53:23.708Z,12.71
2022-10-20T15:55:52.314Z,12.65
2022-10-20T15:58:21.564Z,12.61
2022-10-20T16:00:50.091Z,12.58
2022-10-20T16:03:20.363Z,12.60
2022-10-20T16:05:48.946Z,12.54
2022-10-20T16:08:17.557Z,12.54
2022-10-20T16:10:47.700Z,12.36
2022-10-20T16:13:18.499Z,12.51
2022-10-20T16:15:46.848Z,12.47
2022-10-20T16:18:15.220Z,12.12
2022-10-20T16:20:43.627Z,12.35
2022-10-20T16:23:12.049Z,12.15
2022-10-20T16:25:41.639Z,12.30
2022-10-20T16:28:11.566Z,12.33
2022-10-20T16:30:40.284Z,12.31
2022-10-20T16:33:08.746Z,12.29
2022-10-20T16:35:42.739Z,12.24
2022-10-20T16:38:12.209Z,11.97
2022-10-20T16:40:40.903Z,12.23
2022-10-20T16:43:10.781Z,12.25
2022-10-20T16:45:41.012Z,12.21
2022-10-20T16:48:09.534Z,12.14
2022-10-20T16:50:43.127Z,12.13
2022-10-20T16:53:11.703Z,12.10
2022-10-20T16:55:40.515Z,12.07
2022-10-20T16:58:10.855Z,11.66
2022-10-20T17:00:39.277Z,12.05
2022-10-20T17:03:08.236Z,12.07
2022-10-20T17:05:36.688Z,11.84
2022-10-20T17:08:05.526Z,12.01
2022-10-20T17:10:34.496Z,12.01
2022-10-20T17:13:02.813Z,11.68
2022-10-20T17:15:32.787Z,12.04
2022-10-20T17:18:01.170Z,11.98
2022-10-20T17:20:31.569Z,11.65
2022-10-20T17:23:01.113Z,12.03
2022-10-20T17:25:30.984Z,11.95
2022-10-20T17:28:01.912Z,11.94
2022-10-20T17:30:33.255Z,11.93
2022-10-20T17:33:02.928Z,11.37
2022-10-20T17:35:31.591Z,11.27
2022-10-20T17:38:04.469Z,11.89
2022-10-20T17:40:39.279Z,11.68
2022-10-20T17:43:09.060Z,11.89
2022-10-20T17:45:40.675Z,11.91
2022-10-20T17:48:13.853Z,11.91
2022-10-20T17:50:44.707Z,11.88
2022-10-20T17:53:14.696Z,11.42
2022-10-20T17:55:44.944Z,11.88
2022-10-20T17:58:15.102Z,11.59
2022-10-20T18:00:56.186Z,11.58
2022-10-20T18:03:26.864Z,11.86
2022-10-20T18:05:56.594Z,11.83
2022-10-20T18:08:26.539Z,11.83
2022-10-20T18:10:56.507Z,11.83
2022-10-20T18:13:26.120Z,11.23
2022-10-20T18:15:57.614Z,11.85
2022-10-20T18:18:28.232Z,11.87
2022-10-20T18:20:58.434Z,11.86
2022-10-20T18:23:30.313Z,11.86
2022-10-20T18:26:06.838Z,11.87
2022-10-20T18:28:36.842Z,11.88
2022-10-20T18:31:09.611Z,11.83
2022-10-20T18:33:39.450Z,11.80
2022-10-20T18:36:14.171Z,11.83
2022-10-20T18:38:45.791Z,11.84
2022-10-20T18:41:17.027Z,11.85
2022-10-20T18:43:47.917Z,11.90
2022-10-20T18:46:19.093Z,10.94
2022-10-20T18:48:47.827Z,11.59
2022-10-20T18:51:19.064Z,11.87
2022-10-20T18:53:50.389Z,11.86
2022-10-20T18:56:22.083Z,11.85
2022-10-20T18:58:53.012Z,11.90
2022-10-20T19:01:27.381Z,11.88
2022-10-20T19:03:58.624Z,11.84
2022-10-20T19:06:29.892Z,11.84
2022-10-20T19:09:01.720Z,11.84
2022-10-20T19:11:33.231Z,11.49
2022-10-20T19:14:03.483Z,11.85
2022-10-20T19:16:36.495Z,11.85
2022-10-20T19:19:08.799Z,11.81
2022-10-20T19:21:39.113Z,11.84
2022-10-20T19:24:12.392Z,11.80
2022-10-20T19:26:43.682Z,11.77
2022-10-20T19:31:46.021Z,11.72
2022-10-20T19:34:17.167Z,11.84
2022-10-20T19:36:47.382Z,11.74
2022-10-20T19:39:18.562Z,11.75
2022-10-20T19:41:47.727Z,11.64
2022-10-20T19:44:17.283Z,11.51
2022-10-20T19:46:49.464Z,11.68
2022-10-20T19:49:18.027Z,11.59
2022-10-20T19:51:46.610Z,11.37
2022-10-20T19:57:48.353Z,11.58
2022-10-20T20:00:20.835Z,11.50
2022-10-20T20:02:50.907Z,11.56
2022-10-20T20:05:19.403Z,11.45
2022-10-20T20:07:47.855Z,11.57
2022-10-20T20:10:16.204Z,11.42
2022-10-20T20:12:44.548Z,11.36
2022-10-20T20:15:12.948Z,11.33
2022-10-20T20:17:42.556Z,11.14
2022-10-20T20:20:12.562Z,11.28
2022-10-20T20:22:40.916Z,11.28
2022-10-20T20:25:10.342Z,11.18
2022-10-20T20:27:39.034Z,11.28
2022-10-20T20:30:08.983Z,11.28
2022-10-20T20:32:39.367Z,11.26
2022-10-20T20:35:14.314Z,11.04
2022-10-20T20:37:42.638Z,11.14
2022-10-20T20:40:12.014Z,11.20
2022-10-20T20:42:40.317Z,11.14
2022-10-20T20:45:10.108Z,11.14
2022-10-20T20:47:38.760Z,11.13
2022-10-20T20:50:08.059Z,11.00
2022-10-20T20:52:38.219Z,11.16
2022-10-20T20:55:06.923Z,11.15
2022-10-20T20:57:35.756Z,11.20
2022-10-20T21:00:05.063Z,11.18
2022-10-20T21:02:33.445Z,11.18
2022-10-20T21:05:01.889Z,11.17
2022-10-20T21:07:30.259Z,11.20
2022-10-20T21:10:00.626Z,11.14
2022-10-20T21:12:31.774Z,10.89
2022-10-20T21:15:03.043Z,11.10
2022-10-20T21:17:32.546Z,11.08
2022-10-20T21:20:00.919Z,11.09
2022-10-20T21:22:32.127Z,11.04
2022-10-20T21:25:02.232Z,11.17
2022-10-20T21:27:31.131Z,11.23
2022-10-20T21:29:59.468Z,11.14
2022-10-20T21:32:27.912Z,10.75
2022-10-20T21:34:56.795Z,11.08
2022-10-20T21:37:25.495Z,11.11
2022-10-20T21:39:54.202Z,11.13
2022-10-20T21:42:23.991Z,11.15
2022-10-20T21:44:52.325Z,11.21
2022-10-20T21:47:20.675Z,11.24
2022-10-20T21:49:49.015Z,11.21
2022-10-20T21:52:17.447Z,11.23
2022-10-20T21:54:45.724Z,11.26
2022-10-20T21:57:16.065Z,11.37
2022-10-20T21:59:50.619Z,11.42
2022-10-20T22:02:18.986Z,11.49
2022-10-20T22:04:47.442Z,11.53
2022-10-20T22:07:15.867Z,11.51
2022-10-20T22:09:44.241Z,11.56
2022-10-20T22:12:13.188Z,11.47
2022-10-20T22:14:44.970Z,11.51
2022-10-20T22:17:16.338Z,11.76
2022-10-20T22:19:46.603Z,11.50
2022-10-20T22:22:15.080Z,11.35
2022-10-20T22:24:43.614Z,11.41
2022-10-20T22:27:24.993Z,11.37
2022-10-20T22:30:00.390Z,11.32
2022-10-20T22:32:30.183Z,11.41
2022-10-20T22:34:58.559Z,11.35
2022-10-20T22:37:26.912Z,11.30
2022-10-20T22:39:55.339Z,11.43
2022-10-20T22:42:24.940Z,11.40
2022-10-20T22:44:53.494Z,11.40
2022-10-20T22:47:22.207Z,11.36
2022-10-20T22:49:52.283Z,11.36
2022-10-20T22:52:20.619Z,11.40
2022-10-20T22:54:48.935Z,11.38
2022-10-20T22:57:17.327Z,11.35
2022-10-20T22:59:45.967Z,11.39
2022-10-20T23:02:14.419Z,11.47
2022-10-20T23:04:42.723Z,11.54
2022-10-20T23:07:12.821Z,11.61
2022-10-20T23:09:41.127Z,11.66
2022-10-20T23:12:09.535Z,11.52
2022-10-20T23:14:37.907Z,11.67
2022-10-20T23:17:06.280Z,11.64
2022-10-20T23:19:35.096Z,11.80
2022-10-20T23:22:03.404Z,11.95
2022-10-20T23:24:33.147Z,12.01
2022-10-20T23:27:01.506Z,11.91
2022-10-20T23:29:29.854Z,12.06
2022-10-20T23:31:58.687Z,11.68
2022-10-20T23:34:27.270Z,11.72
2022-10-20T23:36:55.721Z,12.02
2022-10-20T23:39:24.140Z,11.99
2022-10-20T23:41:54.231Z,12.07
2022-10-20T23:44:22.624Z,12.19
2022-10-20T23:46:52.446Z,12.14
2022-10-20T23:49:20.858Z,12.14
2022-10-20T23:51:49.701Z,12.19
2022-10-20T23:54:18.025Z,12.16
2022-10-20T23:56:46.420Z,12.16
2022-10-20T23:59:16.328Z,12.02
